CheckWX is a tool to help pilots better visualize weather data.  It is not intended as a substitute for an official pre-flight weather briefing.

15:46:47 UTC

EGLC TAF
London City Airport
London, United Kingdom
TAF EGLC 291324Z 2915/2924 24010KT 9999 FEW030

Jan-29@
15:00 UTC

Jan-29 @ 15:00 UTC

Jan-30@
00:00 UTC

Jan-30 @ 00:00 UTC

TAF EGLC 291324Z 2915/2924 24010KT 9999 FEW030
Wind
  • 240° at 10 KTS
Cloud Levels
  • Few at 3,000' AGL